Time;durP1;ratioP1;P1;durP2;ratioP2;P2;SDS_P1;SDS_P2;PMS_P1;PMS_P2;Temp;Humidity;BMP_temperature;BMP_pressure;BME280_temperature;BME280_humidity;BME280_pressure;Samples;Min_cycle;Max_cycle;Signal;HPM_P1;HPM_P2
2023/08/28 00:03:47;;;;;;;1.40;1.30;;;;;;;18.53;82.23;99136.83;217779;1254;140832;-68
2023/08/28 00:08:51;;;;;;;1.80;1.70;;;;;;;18.46;82.25;99146.83;218000;1254;140597;-67
2023/08/28 00:13:54;;;;;;;1.80;1.70;;;;;;;18.45;82.46;99159.59;217851;1254;139881;-67
2023/08/28 00:18:56;;;;;;;4.40;2.10;;;;;;;18.42;82.60;99164.33;218205;1257;140271;-67
2023/08/28 00:24:00;;;;;;;3.70;1.90;;;;;;;18.38;82.73;99169.38;219276;1255;139352;-67
2023/08/28 00:29:02;;;;;;;2.80;2.10;;;;;;;18.38;82.96;99165.48;219726;1255;140042;-68
2023/08/28 00:34:09;;;;;;;4.30;2.50;;;;;;;18.41;83.12;99137.52;217808;1259;139762;-67
2023/08/28 00:39:12;;;;;;;2.50;2.20;;;;;;;18.41;83.11;99124.52;217898;1260;140300;-67
2023/08/28 00:44:16;;;;;;;2.40;2.20;;;;;;;18.38;83.32;99144.40;220381;1256;141361;-68
2023/08/28 00:49:19;;;;;;;3.60;2.10;;;;;;;18.33;83.38;99152.48;217677;1254;140690;-69
2023/08/28 00:54:22;;;;;;;5.20;2.40;;;;;;;18.32;83.57;99164.44;219373;1256;140461;-67
2023/08/28 00:59:26;;;;;;;2.40;2.20;;;;;;;18.34;83.77;99155.75;218943;1254;140208;-67
2023/08/28 01:04:31;;;;;;;2.50;2.10;;;;;;;18.36;83.79;99163.33;220763;1254;140476;-66
2023/08/28 01:10:15;;;;;;;2.10;1.90;;;;;;;18.39;83.75;99172.13;220862;1254;140305;-67
2023/08/28 01:15:23;;;;;;;3.90;2.60;;;;;;;18.37;83.92;99186.70;219526;1254;139560;-67
2023/08/28 01:20:32;;;;;;;2.10;2.00;;;;;;;18.37;83.95;99172.87;218386;1254;140749;-68
2023/08/28 01:25:37;;;;;;;2.60;2.40;;;;;;;18.32;83.99;99183.86;218551;1254;139999;-66
2023/08/28 01:30:41;;;;;;;3.60;2.80;;;;;;;18.28;84.29;99190.64;218165;1254;139705;-67
2023/08/28 01:35:52;;;;;;;3.50;3.20;;;;;;;18.26;84.32;99172.10;218986;1254;140034;-66
2023/08/28 01:41:03;;;;;;;2.70;2.10;;;;;;;18.25;84.42;99168.95;218680;1254;140293;-66
2023/08/28 01:46:07;;;;;;;2.80;2.60;;;;;;;18.23;84.23;99183.17;217939;1255;141868;-66
2023/08/28 01:51:14;;;;;;;4.20;3.40;;;;;;;18.17;84.39;99182.25;217969;1256;139682;-67
2023/08/28 01:56:21;;;;;;;3.10;2.40;;;;;;;18.11;84.22;99177.55;218049;1258;139983;-67
2023/08/28 02:01:26;;;;;;;3.00;2.80;;;;;;;18.03;84.34;99176.25;218060;1254;138913;-67
2023/08/28 02:06:30;;;;;;;3.20;2.90;;;;;;;17.96;84.43;99169.21;217815;1256;140026;-67
2023/08/28 02:11:33;;;;;;;3.50;3.20;;;;;;;17.91;84.42;99169.46;218086;1255;139781;-67
2023/08/28 02:16:38;;;;;;;3.90;2.30;;;;;;;17.87;84.64;99182.84;218174;1254;139488;-69
2023/08/28 02:21:42;;;;;;;2.00;1.80;;;;;;;17.80;84.52;99168.21;217995;1254;140742;-68
2023/08/28 02:26:46;;;;;;;3.10;2.80;;;;;;;17.73;84.70;99192.73;219047;1256;140736;-68
2023/08/28 02:31:49;;;;;;;3.70;2.10;;;;;;;17.67;84.93;99207.92;219668;1254;140355;-68
2023/08/28 02:36:52;;;;;;;5.40;3.40;;;;;;;17.66;85.23;99206.58;218838;1254;140914;-66
2023/08/28 02:41:55;;;;;;;2.70;2.60;;;;;;;17.63;85.43;99210.66;218693;1257;139474;-68
2023/08/28 02:46:58;;;;;;;4.70;3.50;;;;;;;17.64;85.64;99211.19;219539;1255;140114;-66
2023/08/28 02:52:01;;;;;;;2.90;2.60;;;;;;;17.67;85.77;99210.98;218969;1254;142220;-66
2023/08/28 02:57:03;;;;;;;53.50;7.40;;;;;;;17.69;85.92;99213.14;218518;1254;140479;-67
2023/08/28 03:02:06;;;;;;;4.60;3.90;;;;;;;17.71;85.96;99216.77;220555;1254;140752;-68
2023/08/28 03:07:09;;;;;;;5.00;3.30;;;;;;;17.76;86.17;99224.05;219505;1255;139960;-68
2023/08/28 03:12:12;;;;;;;5.50;3.60;;;;;;;17.80;86.10;99242.48;219567;1254;140044;-68
2023/08/28 03:17:16;;;;;;;4.50;4.00;;;;;;;17.80;86.05;99252.94;220751;1254;139997;-68
2023/08/28 03:22:19;;;;;;;7.50;4.70;;;;;;;17.82;86.01;99263.21;218024;1254;139812;-68
2023/08/28 03:27:23;;;;;;;10.30;5.70;;;;;;;17.83;86.11;99261.52;219167;1254;140055;-67
2023/08/28 03:32:27;;;;;;;6.10;4.40;;;;;;;17.83;86.06;99255.37;218072;1257;223802;-68
2023/08/28 03:37:34;;;;;;;7.40;5.10;;;;;;;17.82;86.06;99256.30;217863;1254;140535;-67
2023/08/28 03:42:36;;;;;;;6.60;6.10;;;;;;;17.78;86.12;99251.95;218561;1254;140221;-66
2023/08/28 03:47:40;;;;;;;7.50;6.90;;;;;;;17.76;86.16;99249.60;218153;1254;139274;-68
2023/08/28 03:52:43;;;;;;;8.00;6.50;;;;;;;17.73;86.14;99245.51;219217;1254;139348;-67
2023/08/28 03:57:48;;;;;;;7.80;7.00;;;;;;;17.69;86.14;99247.25;218052;1258;141511;-67
2023/08/28 04:02:51;;;;;;;8.50;7.30;;;;;;;17.66;86.18;99248.59;218346;1255;142887;-66
2023/08/28 04:07:54;;;;;;;10.60;9.00;;;;;;;17.67;86.35;99259.56;218266;1256;140064;-66
2023/08/28 04:12:58;;;;;;;8.00;7.40;;;;;;;17.70;86.27;99268.75;218032;1254;139580;-67
2023/08/28 04:18:04;;;;;;;9.60;8.70;;;;;;;17.69;86.37;99270.33;218838;1254;139588;-67
2023/08/28 04:23:07;;;;;;;9.70;8.30;;;;;;;17.65;86.13;99274.15;218841;1256;233438;-68
2023/08/28 04:28:12;;;;;;;9.50;8.40;;;;;;;17.63;86.32;99284.08;219171;1255;140726;-68
2023/08/28 04:33:15;;;;;;;10.00;8.10;;;;;;;17.65;86.40;99292.64;218378;1254;140359;-68
2023/08/28 04:38:18;;;;;;;6.20;5.60;;;;;;;17.68;86.24;99303.45;219170;1256;141049;-68
2023/08/28 04:43:21;;;;;;;9.30;8.40;;;;;;;17.66;86.04;99298.08;220805;1254;139558;-67
2023/08/28 04:48:23;;;;;;;9.60;8.70;;;;;;;17.71;85.94;99288.08;220560;1254;140078;-68
2023/08/28 04:53:26;;;;;;;7.80;7.10;;;;;;;17.84;86.07;99278.88;220691;1254;141663;-69
2023/08/28 04:58:30;;;;;;;9.10;8.20;;;;;;;17.96;86.04;99284.79;220668;1254;140409;-69
2023/08/28 05:03:33;;;;;;;8.40;7.60;;;;;;;18.07;85.71;99302.34;220313;1254;139558;-68
2023/08/28 05:08:37;;;;;;;9.90;7.90;;;;;;;18.14;85.39;99307.73;219506;1254;139678;-68
2023/08/28 05:13:41;;;;;;;8.40;7.70;;;;;;;18.29;85.24;99304.80;219775;1254;139884;-67
2023/08/28 05:18:44;;;;;;;11.40;9.10;;;;;;;18.34;85.24;99305.02;217911;1256;139712;-68
2023/08/28 05:23:48;;;;;;;11.00;8.90;;;;;;;18.32;85.49;99300.17;218597;1256;140368;-69
2023/08/28 05:28:51;;;;;;;11.00;9.00;;;;;;;18.36;85.73;99301.33;217931;1257;141364;-66
2023/08/28 05:33:55;;;;;;;9.50;8.50;;;;;;;18.40;85.84;99308.20;219407;1258;140438;-69
2023/08/28 05:38:58;;;;;;;9.50;8.30;;;;;;;18.43;85.55;99311.73;218963;1254;141805;-68
2023/08/28 05:44:02;;;;;;;8.50;7.70;;;;;;;18.60;85.46;99312.21;218262;1256;141392;-68
2023/08/28 05:49:07;;;;;;;13.00;7.70;;;;;;;18.96;85.26;99302.79;218084;1254;140363;-68
2023/08/28 05:54:11;;;;;;;10.30;9.30;;;;;;;19.25;85.22;99306.63;218708;1254;140963;-66
2023/08/28 05:59:15;;;;;;;8.80;7.90;;;;;;;19.32;84.78;99297.77;218076;1256;139894;-65
2023/08/28 06:04:19;;;;;;;9.00;8.20;;;;;;;19.31;84.39;99292.65;218287;1254;142086;-65
2023/08/28 06:09:22;;;;;;;8.50;7.70;;;;;;;19.24;84.18;99313.86;218114;1254;142127;-68
2023/08/28 06:14:26;;;;;;;8.00;7.40;;;;;;;19.28;84.14;99317.70;218150;1254;139381;-67
2023/08/28 06:19:30;;;;;;;8.30;7.50;;;;;;;19.48;83.69;99311.13;218530;1256;141831;-66
2023/08/28 06:24:34;;;;;;;8.20;7.40;;;;;;;19.59;83.46;99313.71;218052;1259;141039;-69
2023/08/28 06:29:37;;;;;;;9.70;6.90;;;;;;;19.68;83.29;99314.27;219039;1254;141262;-69
2023/08/28 06:34:41;;;;;;;7.30;6.70;;;;;;;19.88;82.63;99318.35;217831;1256;141690;-69
2023/08/28 06:39:45;;;;;;;6.80;6.00;;;;;;;20.08;82.13;99307.66;218073;1254;141004;-67
2023/08/28 06:44:48;;;;;;;6.40;5.50;;;;;;;20.55;81.66;99308.06;220157;1254;139980;-68
2023/08/28 06:49:51;;;;;;;8.00;6.00;;;;;;;21.10;80.83;99315.35;218420;1256;140817;-69
2023/08/28 06:54:55;;;;;;;7.50;6.70;;;;;;;21.47;79.42;99309.85;220746;1254;141110;-67
2023/08/28 06:59:59;;;;;;;6.40;5.00;;;;;;;22.04;77.88;99309.89;220057;1256;139661;-66
2023/08/28 07:05:03;;;;;;;6.00;5.40;;;;;;;22.32;77.34;99309.58;220692;1255;139615;-68
2023/08/28 07:10:07;;;;;;;5.80;5.10;;;;;;;22.39;76.41;99305.91;217944;1257;140623;-67
2023/08/28 07:15:12;;;;;;;9.20;4.50;;;;;;;22.27;75.62;99311.51;218681;1254;140489;-68
2023/08/28 07:20:14;;;;;;;6.40;4.60;;;;;;;22.15;75.23;99317.05;218460;1259;141842;-68
2023/08/28 07:25:21;;;;;;;5.60;5.10;;;;;;;22.04;74.91;99327.20;217907;1256;140545;-68
2023/08/28 07:30:27;;;;;;;7.50;4.60;;;;;;;22.10;74.88;99334.35;218672;1256;140605;-69
2023/08/28 07:35:34;;;;;;;5.50;4.30;;;;;;;22.17;74.08;99339.23;218027;1256;139510;-68
2023/08/28 07:40:38;;;;;;;4.80;4.30;;;;;;;22.22;73.72;99353.14;217827;1258;140704;-67
2023/08/28 07:45:41;;;;;;;4.40;4.00;;;;;;;22.76;74.03;99355.14;217868;1256;140167;-68
2023/08/28 07:50:46;;;;;;;4.80;4.40;;;;;;;23.27;73.21;99347.81;218688;1257;139747;-69
2023/08/28 07:55:49;;;;;;;4.10;3.80;;;;;;;23.25;71.68;99331.12;218023;1256;141188;-67
2023/08/28 08:00:53;;;;;;;4.90;4.00;;;;;;;23.27;71.08;99324.20;217901;1259;139704;-68
2023/08/28 08:05:56;;;;;;;4.80;4.40;;;;;;;23.47;71.04;99315.29;217924;1254;139780;-68
2023/08/28 08:10:59;;;;;;;5.20;4.70;;;;;;;23.81;70.25;99310.48;218008;1259;141039;-68
2023/08/28 08:16:04;;;;;;;5.00;4.50;;;;;;;23.94;69.24;99324.02;218014;1259;140456;-70
2023/08/28 08:21:07;;;;;;;5.50;4.40;;;;;;;23.72;68.43;99324.48;218791;1257;140147;-68
2023/08/28 08:26:12;;;;;;;5.50;4.80;;;;;;;23.40;67.60;99337.02;218299;1257;139636;-67
2023/08/28 08:31:15;;;;;;;5.30;4.60;;;;;;;23.09;67.96;99334.08;218032;1258;141671;-68
2023/08/28 08:36:20;;;;;;;4.80;4.40;;;;;;;22.87;68.27;99329.73;218710;1257;140187;-65
2023/08/28 08:41:25;;;;;;;4.90;4.50;;;;;;;22.54;67.72;99319.71;220628;1256;140150;-66
2023/08/28 08:46:28;;;;;;;4.80;4.30;;;;;;;22.48;68.46;99317.69;218563;1255;140278;-68
2023/08/28 08:51:32;;;;;;;4.00;3.70;;;;;;;22.59;68.41;99317.07;220091;1256;139808;-67
2023/08/28 08:56:38;;;;;;;4.80;4.30;;;;;;;22.59;68.15;99322.81;218211;1256;139839;-65
2023/08/28 09:01:41;;;;;;;5.20;4.70;;;;;;;22.63;68.27;99329.81;218641;1256;139799;-65
2023/08/28 09:06:46;;;;;;;6.00;5.40;;;;;;;22.63;67.85;99353.28;218407;1257;140674;-67
2023/08/28 09:11:51;;;;;;;5.50;4.90;;;;;;;22.50;67.57;99381.37;217941;1259;139773;-68
2023/08/28 09:16:53;;;;;;;7.20;5.20;;;;;;;22.46;68.18;99401.73;217993;1256;140927;-67
2023/08/28 09:21:57;;;;;;;5.10;4.80;;;;;;;22.64;68.19;99415.21;218757;1255;139528;-67
2023/08/28 09:27:00;;;;;;;5.80;5.30;;;;;;;22.77;67.94;99411.32;218629;1255;140642;-66
2023/08/28 09:32:04;;;;;;;7.10;6.40;;;;;;;22.79;67.38;99400.55;218137;1256;140502;-67
2023/08/28 09:37:11;;;;;;;5.10;4.70;;;;;;;22.99;67.55;99399.75;217704;1257;140013;-66
2023/08/28 09:42:14;;;;;;;6.20;5.60;;;;;;;23.35;67.62;99393.40;218089;1259;139464;-67
2023/08/28 09:47:21;;;;;;;6.50;5.90;;;;;;;23.88;67.72;99383.98;217983;1258;139554;-67
2023/08/28 09:52:26;;;;;;;5.50;5.00;;;;;;;24.27;66.81;99363.88;218057;1259;140411;-67
2023/08/28 09:57:30;;;;;;;7.00;6.20;;;;;;;24.67;65.98;99339.77;218147;1256;140867;-67
2023/08/28 10:02:33;;;;;;;7.80;5.50;;;;;;;24.84;65.26;99325.70;218236;1256;139518;-68
2023/08/28 10:07:39;;;;;;;8.70;4.90;;;;;;;25.13;64.21;99321.77;218639;1254;140262;-69
2023/08/28 10:12:45;;;;;;;5.80;4.70;;;;;;;25.25;63.73;99325.71;217972;1257;139180;-69
2023/08/28 10:17:56;;;;;;;7.70;5.60;;;;;;;25.37;63.14;99314.86;219002;1256;140382;-68
2023/08/28 10:22:59;;;;;;;10.50;4.10;;;;;;;25.55;61.98;99324.77;218592;1256;140630;-70
2023/08/28 10:28:04;;;;;;;4.50;4.20;;;;;;;25.58;61.32;99319.10;218672;1256;140077;-69
2023/08/28 10:33:11;;;;;;;6.10;3.90;;;;;;;25.57;60.56;99303.77;219001;1259;139612;-69
2023/08/28 10:38:17;;;;;;;5.50;3.90;;;;;;;25.48;59.76;99311.78;218099;1259;139050;-69
2023/08/28 10:43:21;;;;;;;4.90;4.30;;;;;;;25.37;59.47;99322.67;217809;1257;138904;-69
2023/08/28 10:48:24;;;;;;;6.20;3.70;;;;;;;25.26;59.61;99323.19;220352;1259;139928;-71
2023/08/28 10:53:27;;;;;;;4.10;3.80;;;;;;;25.19;59.14;99321.87;219527;1259;495980;-70
2023/08/28 10:58:37;;;;;;;5.90;3.10;;;;;;;25.26;58.64;99315.94;218694;1259;139284;-70
2023/08/28 11:03:58;;;;;;;4.30;3.80;;;;;;;25.34;58.73;99316.03;219571;1259;139629;-71
2023/08/28 11:09:29;;;;;;;5.80;4.10;;;;;;;25.38;58.68;99316.60;218155;1254;139708;-70
2023/08/28 11:14:38;;;;;;;4.70;4.30;;;;;;;25.35;58.01;99322.05;218310;1257;140154;-73
2023/08/28 11:19:55;;;;;;;4.60;4.20;;;;;;;25.32;57.87;99334.68;219237;1259;160956;-71
2023/08/28 11:25:07;;;;;;;4.20;3.90;;;;;;;25.30;58.10;99340.52;219435;1257;140484;-70
2023/08/28 11:30:13;;;;;;;6.00;4.30;;;;;;;25.28;58.40;99344.20;218990;1257;138910;-73
2023/08/28 11:35:17;;;;;;;7.80;4.00;;;;;;;25.42;58.49;99339.82;217832;1257;140857;-68
2023/08/28 11:40:25;;;;;;;4.80;4.00;;;;;;;25.59;58.01;99339.55;218027;1257;138701;-69
2023/08/28 11:45:29;;;;;;;5.70;3.70;;;;;;;25.49;57.59;99337.91;219549;1256;139996;-69
2023/08/28 11:50:34;;;;;;;4.10;3.70;;;;;;;25.56;57.70;99331.89;218179;1256;138807;-70
2023/08/28 11:55:39;;;;;;;4.00;3.70;;;;;;;25.64;57.51;99336.54;218011;1257;139391;-70
2023/08/28 12:00:43;;;;;;;6.10;3.50;;;;;;;25.39;57.28;99344.45;218058;1256;139829;-69
2023/08/28 12:05:48;;;;;;;4.80;4.50;;;;;;;25.07;57.49;99344.95;218350;1259;139149;-69
2023/08/28 12:10:52;;;;;;;4.50;4.20;;;;;;;24.97;58.07;99334.88;218013;1259;139945;-70
2023/08/28 12:16:25;;;;;;;4.10;3.80;;;;;;;24.97;57.76;99322.48;218135;1257;139619;-69
2023/08/28 12:21:38;;;;;;;5.60;4.20;;;;;;;25.20;57.84;99306.87;218260;1257;140110;-71
2023/08/28 12:26:43;;;;;;;3.90;3.60;;;;;;;25.55;57.10;99294.68;218434;1257;139804;-69
2023/08/28 12:31:48;;;;;;;3.70;3.40;;;;;;;25.80;56.44;99289.90;217799;1258;138722;-68
2023/08/28 12:36:52;;;;;;;4.80;4.40;;;;;;;25.50;55.95;99293.36;218139;1257;139911;-70
2023/08/28 12:41:56;;;;;;;3.60;3.40;;;;;;;25.09;56.15;99295.34;219734;1255;140546;-69
2023/08/28 12:46:59;;;;;;;3.80;3.50;;;;;;;24.66;56.43;99291.85;219441;1257;140052;-69
2023/08/28 12:52:03;;;;;;;3.10;2.90;;;;;;;24.26;57.03;99303.47;218402;1257;139113;-69
2023/08/28 12:57:08;;;;;;;3.50;3.30;;;;;;;23.92;57.35;99334.45;219171;1259;140064;-69
2023/08/28 13:02:12;;;;;;;5.00;4.30;;;;;;;23.71;57.66;99300.58;219029;1257;138422;-69
2023/08/28 13:07:17;;;;;;;4.70;4.40;;;;;;;23.73;58.10;99285.04;218505;1255;138881;-69
2023/08/28 13:12:25;;;;;;;5.80;5.00;;;;;;;23.87;58.49;99291.00;218432;1259;139246;-70
2023/08/28 13:17:30;;;;;;;5.00;4.10;;;;;;;23.89;58.43;99280.52;218155;1257;138867;-69
2023/08/28 13:22:34;;;;;;;5.60;4.90;;;;;;;23.69;58.31;99267.33;218013;1256;138939;-68
2023/08/28 13:27:39;;;;;;;;;;;;;;;23.44;58.38;99262.95;218424;1258;139353;-68
2023/08/28 13:32:47;;;;;;;4.90;4.50;;;;;;;23.34;58.99;99271.79;218454;1259;126206;-68
2023/08/28 13:37:52;;;;;;;5.70;5.10;;;;;;;23.19;59.47;99262.23;217868;1259;140048;-68
2023/08/28 13:42:56;;;;;;;10.00;4.80;;;;;;;22.95;59.99;99257.95;217809;1259;139272;-68
2023/08/28 13:48:00;;;;;;;10.90;8.00;;;;;;;22.68;60.59;99263.74;218088;1259;139296;-68
2023/08/28 13:53:04;;;;;;;19.30;10.80;;;;;;;22.45;61.12;99292.04;218018;1259;139004;-68
2023/08/28 13:58:08;;;;;;;6.20;5.20;;;;;;;22.27;61.46;99281.58;217946;1259;139912;-68
2023/08/28 14:03:12;;;;;;;70.00;27.70;;;;;;;22.11;61.90;99287.64;218445;1257;139815;-69
2023/08/28 14:08:17;;;;;;;10.50;5.50;;;;;;;21.96;62.52;99287.19;218401;1259;140982;-68
2023/08/28 14:13:21;;;;;;;5.00;4.50;;;;;;;21.85;62.51;99274.73;217789;1259;140469;-68
2023/08/28 14:18:26;;;;;;;9.10;3.60;;;;;;;21.79;62.93;99268.76;218780;1260;139892;-67
2023/08/28 14:23:31;;;;;;;4.50;4.10;;;;;;;21.72;63.27;99277.77;218087;1258;139747;-68
2023/08/28 14:28:34;;;;;;;6.40;4.90;;;;;;;21.65;63.44;99260.23;217822;1255;140361;-68
2023/08/28 14:33:40;;;;;;;5.50;4.60;;;;;;;21.63;63.64;99258.98;218570;1258;140563;-68
2023/08/28 14:38:44;;;;;;;5.00;4.40;;;;;;;21.59;63.90;99258.46;218395;1260;139390;-68
2023/08/28 14:43:49;;;;;;;4.40;4.10;;;;;;;21.54;64.22;99250.67;218173;1259;139907;-66
2023/08/28 14:48:52;;;;;;;5.30;4.90;;;;;;;21.47;64.50;99250.51;220614;1255;140099;-68
2023/08/28 14:53:57;;;;;;;4.70;4.40;;;;;;;21.43;64.74;99241.31;217830;1260;139803;-66
2023/08/28 14:59:00;;;;;;;6.30;5.70;;;;;;;21.39;64.98;99246.05;218963;1257;140665;-68
2023/08/28 15:04:03;;;;;;;4.80;4.50;;;;;;;21.34;65.21;99239.83;218069;1257;140042;-66
2023/08/28 15:09:06;;;;;;;5.10;4.60;;;;;;;21.31;65.56;99241.32;218945;1254;140067;-67
2023/08/28 15:14:09;;;;;;;5.10;4.50;;;;;;;21.23;65.86;99234.39;218644;1260;139786;-66
2023/08/28 15:19:17;;;;;;;4.70;4.30;;;;;;;21.17;65.98;99228.52;217852;1261;140946;-67
2023/08/28 15:24:21;;;;;;;5.30;4.60;;;;;;;21.18;66.36;99225.67;218871;1258;139835;-65
2023/08/28 15:29:26;;;;;;;8.80;5.30;;;;;;;21.22;66.59;99236.32;218051;1254;140818;-65
2023/08/28 15:34:33;;;;;;;5.20;4.80;;;;;;;21.25;66.88;99245.45;217696;1257;141927;-64
2023/08/28 15:39:46;;;;;;;6.20;5.60;;;;;;;21.23;67.21;99249.63;218327;1254;139234;-66
2023/08/28 15:44:50;;;;;;;6.40;5.40;;;;;;;21.18;67.42;99245.18;217930;1259;140874;-65
2023/08/28 15:49:54;;;;;;;8.50;5.90;;;;;;;21.16;67.39;99233.86;218049;1260;139444;-66
2023/08/28 15:54:58;;;;;;;6.00;5.40;;;;;;;21.15;67.42;99220.05;217921;1255;139894;-66
2023/08/28 16:00:07;;;;;;;6.00;5.30;;;;;;;21.17;67.70;99216.04;219108;1257;141271;-66
2023/08/28 16:05:16;;;;;;;6.30;5.70;;;;;;;21.20;67.61;99183.88;218052;1257;140551;-67
2023/08/28 16:10:26;;;;;;;5.80;5.30;;;;;;;21.25;68.09;99193.40;217973;1254;141233;-66
2023/08/28 16:15:39;;;;;;;5.60;5.20;;;;;;;21.26;68.24;99203.27;217873;1260;140184;-68
2023/08/28 16:20:44;;;;;;;5.40;4.90;;;;;;;21.21;68.60;99220.08;218168;1257;139602;-70
2023/08/28 16:25:47;;;;;;;6.10;5.40;;;;;;;21.11;69.03;99222.50;218571;1258;140621;-67
2023/08/28 16:30:51;;;;;;;9.70;5.60;;;;;;;21.03;69.28;99236.59;218336;1257;139763;-70
2023/08/28 16:35:57;;;;;;;;;;;;;;;20.92;69.59;99248.00;219206;1257;140223;-70
2023/08/28 16:41:00;;;;;;;11.90;5.30;;;;;;;20.77;69.70;99259.59;219443;1258;126964;-69
2023/08/28 16:46:03;;;;;;;5.70;5.20;;;;;;;20.65;70.07;99259.38;217984;1254;139491;-69
2023/08/28 16:51:08;;;;;;;8.30;5.20;;;;;;;20.60;70.49;99262.38;219607;1254;140177;-71
2023/08/28 16:56:12;;;;;;;6.60;5.90;;;;;;;20.57;70.75;99256.69;219137;1254;140596;-69
2023/08/28 17:01:16;;;;;;;6.90;5.40;;;;;;;20.49;70.91;99258.67;219443;1254;140238;-67
2023/08/28 17:06:19;;;;;;;6.20;5.60;;;;;;;20.43;71.21;99271.88;218317;1258;140928;-69
2023/08/28 17:11:23;;;;;;;9.90;5.50;;;;;;;20.41;71.38;99266.58;217925;1257;140206;-70
2023/08/28 17:16:30;;;;;;;6.40;5.80;;;;;;;20.35;71.47;99256.86;218223;1259;140654;-68
2023/08/28 17:21:37;;;;;;;5.60;5.20;;;;;;;20.27;71.87;99243.46;218429;1258;141027;-70
2023/08/28 17:26:42;;;;;;;5.90;5.10;;;;;;;20.21;72.57;99232.09;219060;1257;139514;-69
2023/08/28 17:31:45;;;;;;;8.10;5.90;;;;;;;20.16;72.97;99237.91;217956;1257;140646;-68
2023/08/28 17:36:49;;;;;;;9.20;6.10;;;;;;;20.12;73.26;99227.52;217990;1257;140351;-69
2023/08/28 17:41:53;;;;;;;6.90;5.90;;;;;;;20.10;73.49;99229.02;218331;1257;139851;-70
2023/08/28 17:46:57;;;;;;;6.50;5.90;;;;;;;20.06;73.55;99238.92;217884;1257;139259;-71
2023/08/28 17:52:00;;;;;;;5.60;5.10;;;;;;;19.92;73.61;99232.71;218690;1256;140759;-68
2023/08/28 17:57:04;;;;;;;6.80;5.80;;;;;;;19.76;73.83;99236.05;217879;1259;140050;-71
2023/08/28 18:02:07;;;;;;;5.90;5.50;;;;;;;19.74;74.62;99238.73;217987;1259;139601;-71
2023/08/28 18:07:10;;;;;;;5.70;5.20;;;;;;;19.74;74.98;99241.39;217922;1257;141972;-69
2023/08/28 18:12:13;;;;;;;7.30;6.70;;;;;;;19.61;75.00;99236.83;217824;1258;140114;-68
2023/08/28 18:17:18;;;;;;;13.50;8.80;;;;;;;19.56;75.45;99231.64;217629;1256;140250;-70
2023/08/28 18:22:22;;;;;;;7.70;6.90;;;;;;;19.59;75.88;99233.90;217895;1256;140475;-68
2023/08/28 18:27:28;;;;;;;7.20;6.70;;;;;;;19.59;76.07;99231.30;218381;1259;139588;-67
2023/08/28 18:32:31;;;;;;;144.80;16.20;;;;;;;19.59;76.41;99233.02;217946;1257;140319;-70
2023/08/28 18:37:43;;;;;;;7.70;6.90;;;;;;;19.60;76.33;99231.17;217863;1257;140913;-71
2023/08/28 18:42:49;;;;;;;8.10;7.40;;;;;;;19.56;76.04;99221.71;218626;1255;139635;-71
2023/08/28 18:47:52;;;;;;;7.60;7.00;;;;;;;19.51;75.50;99229.55;218231;1257;140014;-68
2023/08/28 18:52:56;;;;;;;8.20;7.50;;;;;;;19.46;74.69;99220.23;217935;1254;140354;-69
2023/08/28 18:58:01;;;;;;;8.70;7.70;;;;;;;19.41;74.10;99206.29;218142;1256;140211;-69
2023/08/28 19:03:04;;;;;;;7.50;6.80;;;;;;;19.36;73.54;99193.05;218613;1259;140738;-70
2023/08/28 19:08:09;;;;;;;9.20;8.10;;;;;;;19.31;73.13;99189.76;218667;1254;140957;-68
2023/08/28 19:13:16;;;;;;;9.30;8.50;;;;;;;19.26;72.76;99187.75;218654;1257;141705;-70
2023/08/28 19:18:21;;;;;;;10.60;8.60;;;;;;;19.24;72.54;99181.11;218504;1259;140382;-67
2023/08/28 19:23:26;;;;;;;9.50;8.60;;;;;;;19.21;72.19;99168.59;218078;1257;139832;-67
2023/08/28 19:28:30;;;;;;;9.20;8.40;;;;;;;19.17;72.16;99181.05;218353;1257;139870;-69
2023/08/28 19:33:34;;;;;;;9.60;8.60;;;;;;;19.15;72.09;99177.05;218652;1259;139601;-69
2023/08/28 19:38:40;;;;;;;9.00;8.20;;;;;;;19.11;71.86;99168.53;218288;1257;140887;-68
2023/08/28 19:43:55;;;;;;;10.50;9.00;;;;;;;19.08;71.79;99149.42;217612;1254;139510;-68
2023/08/28 19:49:10;;;;;;;10.30;8.10;;;;;;;19.04;71.61;99142.37;217994;1256;139662;-68
2023/08/28 19:54:15;;;;;;;9.40;8.50;;;;;;;19.00;71.68;99140.52;217996;1259;140901;-66
2023/08/28 19:59:22;;;;;;;10.10;8.50;;;;;;;18.97;71.53;99131.63;218065;1256;139652;-68
2023/08/28 20:04:30;;;;;;;8.60;7.80;;;;;;;18.94;71.46;99127.16;218164;1259;141002;-66
2023/08/28 20:09:38;;;;;;;14.30;7.20;;;;;;;18.92;71.39;99125.75;218421;1254;139642;-66
2023/08/28 20:14:48;;;;;;;9.90;8.00;;;;;;;18.91;71.41;99124.21;217806;1254;139751;-68
2023/08/28 20:19:54;;;;;;;8.40;7.70;;;;;;;18.90;71.33;99120.83;218168;1254;209623;-67
2023/08/28 20:24:57;;;;;;;;;;;;;;;18.88;71.34;99114.66;218243;1256;139535;-71
2023/08/28 20:30:01;;;;;;;8.80;8.00;;;;;;;18.84;71.28;99112.80;218271;1256;127040;-67
2023/08/28 20:35:08;;;;;;;;;;;;;;;18.82;71.18;99113.29;218178;1259;141499;-69
2023/08/28 20:40:16;;;;;;;10.20;8.60;;;;;;;18.76;71.29;99098.66;218696;1254;126204;-69
2023/08/28 20:45:20;;;;;;;10.40;9.30;;;;;;;18.75;71.33;99096.64;219074;1257;142108;-66
2023/08/28 20:50:24;;;;;;;8.80;8.00;;;;;;;18.73;71.30;99093.00;219673;1256;141395;-65
2023/08/28 20:55:37;;;;;;;9.90;8.80;;;;;;;18.75;71.42;99090.16;217801;1257;139612;-68
2023/08/28 21:00:50;;;;;;;9.30;8.20;;;;;;;18.74;71.42;99075.92;217984;1255;140351;-71
2023/08/28 21:05:57;;;;;;;10.30;9.30;;;;;;;18.73;71.37;99067.40;218005;1257;139916;-70
2023/08/28 21:11:02;;;;;;;10.40;9.30;;;;;;;18.73;71.50;99061.84;218757;1256;141048;-70
2023/08/28 21:16:05;;;;;;;13.70;9.60;;;;;;;18.72;71.53;99057.92;219587;1256;140279;-68
2023/08/28 21:21:08;;;;;;;10.40;9.00;;;;;;;18.70;71.56;99048.52;219043;1256;141039;-66
2023/08/28 21:26:11;;;;;;;9.50;8.50;;;;;;;18.67;71.73;99042.98;218206;1259;139083;-66
2023/08/28 21:31:14;;;;;;;11.50;9.50;;;;;;;18.65;71.74;99033.32;218968;1256;141951;-67
2023/08/28 21:36:18;;;;;;;11.90;9.60;;;;;;;18.60;71.59;99030.13;218086;1255;139845;-67
2023/08/28 21:41:31;;;;;;;10.60;9.50;;;;;;;18.58;71.68;99017.64;217712;1255;142108;-70
2023/08/28 21:46:43;;;;;;;12.00;10.70;;;;;;;18.55;71.68;98999.67;218009;1257;143384;-71
2023/08/28 21:51:46;;;;;;;11.60;10.40;;;;;;;18.53;71.58;99004.14;217923;1258;140550;-67
2023/08/28 21:56:48;;;;;;;12.20;9.20;;;;;;;18.52;71.65;99018.80;218264;1255;141100;-79
2023/08/28 22:01:51;;;;;;;10.70;9.30;;;;;;;18.49;71.53;99021.45;217788;1254;139769;-69
2023/08/28 22:06:56;;;;;;;12.00;9.70;;;;;;;18.49;71.61;99025.69;218428;1254;140957;-72
2023/08/28 22:12:01;;;;;;;10.60;9.70;;;;;;;18.50;71.59;99031.34;218000;1254;151534;-70
2023/08/28 22:17:06;;;;;;;11.50;10.40;;;;;;;18.50;71.61;99039.83;217778;1257;140652;-71
2023/08/28 22:22:08;;;;;;;9.90;8.90;;;;;;;18.50;71.74;99033.23;218256;1259;141240;-71
2023/08/28 22:27:11;;;;;;;11.00;9.60;;;;;;;18.50;71.58;99036.42;218075;1256;140373;-71
2023/08/28 22:32:14;;;;;;;11.00;9.80;;;;;;;18.49;71.57;99037.15;218665;1256;139984;-70
2023/08/28 22:37:18;;;;;;;10.70;9.80;;;;;;;18.47;71.60;99038.46;218408;1256;142752;-72
2023/08/28 22:42:20;;;;;;;10.10;9.00;;;;;;;18.46;71.42;99036.35;218464;1256;141542;-69
2023/08/28 22:47:24;;;;;;;10.60;9.00;;;;;;;18.46;71.51;99036.83;218659;1255;140758;-70
2023/08/28 22:52:28;;;;;;;9.10;8.00;;;;;;;18.44;71.51;99034.65;219044;1256;1073527;-66
2023/08/28 22:57:30;;;;;;;13.00;7.60;;;;;;;18.43;71.45;99022.36;219912;1256;140966;-67
2023/08/28 23:02:35;;;;;;;11.20;8.90;;;;;;;18.43;71.32;99007.91;218319;1256;140530;-72
2023/08/28 23:07:42;;;;;;;9.60;8.80;;;;;;;18.41;71.18;98981.89;218570;1256;139667;-68
2023/08/28 23:12:46;;;;;;;8.70;7.40;;;;;;;18.39;71.24;98959.10;218411;1257;140028;-74
2023/08/28 23:17:49;;;;;;;11.00;7.90;;;;;;;18.38;71.44;98941.27;218949;1255;140095;-68
2023/08/28 23:22:53;;;;;;;8.80;8.00;;;;;;;18.37;71.41;98929.67;219054;1255;140080;-68